Flight Track Log - Related Links

Times and Time Zones

All times are in EDT time to prevent confusion due to time zone crossing. See the FLG3613 flight status page for this flight to view local times or setup timezone preferences in your user account.

Time Position Orientation Groundspeed Altitude Reporting Facility
EDT Latitude Longitude Course Direction KTS MPH feet Rate Location/Type
Tue 05:49:04 PM 41.4589 -90.3772 77° East 203 234 4,200  Level Chicago Center
Tue 05:50:06 PM 41.4683 -90.2886 82° East 220 253 5,900 1,935 Climbing Chicago Center
Tue 05:51:08 PM 41.4758 -90.1864 84° East 259 298 8,200 2,129 Climbing Chicago Center
Tue 05:52:10 PM 41.4872 -90.0750 82° East 289 333 10,300 1,597 Climbing Chicago Center
Tue 05:53:00 PM 41.5167 -89.7067 90° East  Level FlightAware Approximate
Tue 05:53:12 PM 41.4994 -89.9542 82° East 316 364 11,500  Level Chicago Center
Tue 05:54:00 PM 41.5239 -89.5735 77° East  Level FlightAware Approximate
Tue 05:54:15 PM 41.5133 -89.7917 83° East 356 410 13,000  Level Chicago Center
Tue 05:55:17 PM 41.5272 -89.6481 83° East 379 436 14,300 1,210 Climbing Chicago Center
Tue 05:56:19 PM 41.5381 -89.5044 84° East 387 445 15,500 1,210 Climbing Chicago Center
Tue 05:57:21 PM 41.5506 -89.3569 83° East 396 456 16,800 1,161 Climbing Chicago Center
Tue 05:58:23 PM 41.5639 -89.2083 83° East 400 460 17,900 1,286 Climbing Chicago Center
Tue 05:59:27 PM 41.5783 -89.0311 84° East 403 464 19,500 1,333 Climbing Chicago Center
Tue 06:00:29 PM 41.5900 -88.8814 84° East 404 465 20,700 1,210 Climbing Chicago Center
Tue 06:01:31 PM 41.5697 -88.7344 100° East 405 466 22,000 1,258 Climbing Chicago Center
Tue 06:02:33 PM 41.5464 -88.5881 102° East 404 465 23,300 1,104 Climbing Chicago Center
Tue 06:03:36 PM 41.5236 -88.4436 102° East 400 460 24,300 816 Climbing Chicago Center
Tue 06:04:38 PM 41.5339 -88.2992 85° East 400 460 25,000 726 Climbing Chicago Center
Tue 06:05:40 PM 41.5639 -88.1206 77° East 402 463 25,800 629 Climbing Chicago Center
Tue 06:06:42 PM 41.5892 -87.9669 78° East 410 472 26,300 480 Climbing Chicago Center
Tue 06:07:45 PM 41.6142 -87.8108 78° East 420 483 26,800 339 Climbing Chicago Center
Tue 06:08:46 PM 41.6392 -87.6525 78° East 429 494 27,000 98 Climbing Chicago Center
Tue 06:09:48 PM 41.6650 -87.4875 78° East 448 516 27,000  Level Chicago Center
Tue 06:10:50 PM 41.6928 -87.3194 77° East 458 527 27,000  Level Chicago Center
Tue 06:11:53 PM 41.7189 -87.1475 78° East 469 540 27,000  Level Chicago Center
Tue 06:12:55 PM 41.7517 -86.9397 78° East 473 544 27,000 -387 Level Chicago Center
Tue 06:13:57 PM 41.7772 -86.7706 78° East 465 535 26,200 -968 Descending Chicago Center
Tue 06:14:59 PM 41.7989 -86.6306 78° East 436 502 25,000 -1,839 Descending Chicago Center
Tue 06:16:01 PM 41.8219 -86.4758 79° East 426 490 22,400 -2,323 Descending Chicago Center
Tue 06:17:03 PM 41.8483 -86.2972 79° East 410 472 20,200 -1,500 Descending Chicago Center
Tue 06:18:05 PM 41.8697 -86.1525 79° East 399 459 19,300 -581 Descending Chicago Center
Tue 06:19:07 PM 41.8897 -86.0056 80° East 399 459 19,000 -144 Descending Chicago Center
Tue 06:20:10 PM 41.9117 -85.8622 78° East 395 455 19,000  Level Chicago Center
Tue 06:21:12 PM 41.9322 -85.7158 79° East 395 455 19,000  Level Chicago Center
Tue 06:22:14 PM 41.9522 -85.5717 79° East 394 453 19,000  Level Chicago Center
Tue 06:23:16 PM 41.9719 -85.4267 80° East 393 452 19,000  Level Chicago Center
Tue 06:24:18 PM 41.9972 -85.2489 79° East 401 461 19,000  Level Chicago Center
Tue 06:25:20 PM 42.0147 -85.0964 81° East 413 475 19,000  Level Chicago Center
Tue 06:26:24 PM 41.9775 -84.9542 109° East 402 463 19,000 -339 Level Chicago Center
Tue 06:27:24 PM 41.9392 -84.8178 111° Southeast 395 455 18,300 -829 Descending Chicago Center
Tue 06:28:27 PM 41.9014 -84.6936 112° Southeast 364 419 17,300 -956 Descending Chicago Center
Tue 06:29:17 PM 41.8411 -84.6292 141° Southeast 344 396 16,500 -696 Descending Cleveland Center
Tue 06:30:19 PM 41.7794 -84.5158 126° Southeast 333 383 16,000 -242 Descending Cleveland Center
Tue 06:31:21 PM 41.7900 -84.4047 83° East 307 353 16,000  Level Cleveland Center
Tue 06:32:23 PM 41.8017 -84.2911 82° East 308 354 16,000  Level Cleveland Center
Tue 06:33:25 PM 41.8131 -84.1756 82° East 294 338 16,000  Level Cleveland Center
Tue 06:34:27 PM 41.8231 -84.0697 83° East 289 333 16,000  Level Cleveland Center
Tue 06:35:30 PM 41.8550 -83.9800 64° Northeast 291 335 16,000  Level Cleveland Center
Tue 06:36:32 PM 41.9158 -84.0056 343° North 259 298 16,000  Level Cleveland Center
Tue 06:37:34 PM 41.9061 -84.0936 262° West 252 290 16,000  Level Cleveland Center
Tue 06:38:36 PM 41.8606 -84.1928 238° Southwest 260 299 16,000 -435 Level Cleveland Center
Tue 06:39:38 PM 41.8244 -84.2708 238° Southwest 261 300 15,100 -1,113 Descending Cleveland Center
Tue 06:40:40 PM 41.7792 -84.3444 230° Southwest 263 303 13,700 -1,381 Descending Cleveland Center
Tue 06:41:44 PM 41.7258 -84.2600 130° Southeast 315 362 12,200 -816 Descending Cleveland Center
Tue 06:42:45 PM 41.7614 -84.1736 61° Northeast 306 352 12,000 -94 Descending Cleveland Center
Tue 06:43:52 PM 41.8189 -84.0556 57° Northeast 294 338 12,000  Level Cleveland Center
Tue 06:44:49 PM 41.8594 -83.9819 53° Northeast 270 311 12,000 -555 Level Cleveland Center
Tue 06:45:51 PM 41.9031 -83.9047 53° Northeast 261 300 10,900 -1,355 Descending Cleveland Center
Tue 06:46:53 PM 41.8847 -83.8133 105° East 255 293 9,200 -1,839 Descending Cleveland Center
Tue 06:47:55 PM 41.8964 -83.7283 80° East 253 291 7,100 -1,536 Descending Cleveland Center
Tue 06:48:58 PM 41.9336 -83.6292 63° Northeast 247 284 6,000 -576 Descending Cleveland Center
Tue 06:50:00 PM 41.9656 -83.5547 60° Northeast 239 275 5,900 -629 Descending Cleveland Center
Tue 06:51:02 PM 42.0183 -83.5192 27° Northeast 216 249 4,700 -1,065 Descending Cleveland Center
Tue 06:52:04 PM 42.0667 -83.4836 29° Northeast 205 236 3,700 -1,041 Descending Cleveland Center
Tue 06:53:03 PM 42.1183 -83.4447 29° Northeast 180 207 2,600 -1,000 Descending Cleveland Center
Tue 06:54:04 PM 42.1558 -83.4192 27° Northeast 141 162 1,700 -787 Descending Cleveland Center
Tue 06:55:05 PM 42.1894 -83.3931 30° Northeast 134 154 1,000 -419 Descending Cleveland Center
Tue 06:56:13 PM 42.2253 -83.3667 29° Northeast 143 165 800 -176 Descending Cleveland Center
Tue 06:58:00 PM 42.2124 -83.3534 143° Southeast  Level Estimated

Login

Don't have an account? Register now (free) for customized features, flight alerts, and more!